Time;durP1;ratioP1;P1;durP2;ratioP2;P2;SDS_P1;SDS_P2;PMS_P1;PMS_P2;Temp;Humidity;BMP_temperature;BMP_pressure;BME280_temperature;BME280_humidity;BME280_pressure;Samples;Min_cycle;Max_cycle;Signal;HPM_P1;HPM_P2
2023/10/11 00:01:58;;;;;;;;;;;;;;;;;;5133439;28;20358;-53
2023/10/11 00:04:23;;;;;;;;;;;;;;;;;;5133522;28;19931;-53
2023/10/11 00:06:49;;;;;;;;;;;;;;;;;;5133130;28;19927;-53
2023/10/11 00:09:16;;;;;;;;;;;;;;;;;;5131836;28;20022;-54
2023/10/11 00:11:42;;;;;;;;;;;;;;;;;;5133084;28;19923;-53
2023/10/11 00:14:07;;;;;;;;;;;;;;;;;;5132386;28;19962;-54
2023/10/11 00:16:35;;;;;;;;;;;;;;;;;;5133206;27;20010;-54
2023/10/11 00:19:00;;;;;;;;;;;;;;;;;;5132624;28;19963;-54
2023/10/11 00:21:42;;;;;;;;;;;;;;;;;;5132829;28;19928;-53
2023/10/11 00:24:07;;;;;;;;;;;;;;;;;;5132283;28;19923;-54
2023/10/11 00:26:34;;;;;;;;;;;;;;;;;;5133446;28;19975;-53
2023/10/11 00:29:00;;;;;;;;;;;;;;;;;;5132081;28;19927;-53
2023/10/11 00:31:26;;;;;;;;;;;;;;;;;;5132455;28;19924;-54
2023/10/11 00:33:53;;;;;;;;;;;;;;;;;;5132175;28;20019;-54
2023/10/11 00:36:26;;;;;;;;;;;;;;;;;;5132658;28;19928;-54
2023/10/11 00:38:51;;;;;;;;;;;;;;;;;;5131553;28;20287;-54
2023/10/11 00:41:18;;;;;;;;;;;;;;;;;;5132443;28;20363;-54
2023/10/11 00:43:46;;;;;;;;;;;;;;;;;;5131227;28;19978;-53
2023/10/11 00:46:14;;;;;;;;;;;;;;;;;;5133125;27;19946;-54
2023/10/11 00:48:45;;;;;;;;;;;;;;;;;;5126580;27;19923;-53
2023/10/11 00:51:11;;;;;;;;;;;;;;;;;;5153652;27;19948;-54
2023/10/11 00:53:36;;;;;;;;;;;;;;;;;;5153424;27;19923;-53
2023/10/11 00:56:03;;;;;;;;;;;;;;;;;;5153984;27;20076;-53
2023/10/11 00:58:29;;;;;;;;;;;;;;;;;;5144105;27;19974;-53
2023/10/11 01:00:54;;;;;;;;;;;;;;;;;;5132780;28;19930;-53
2023/10/11 01:03:22;;;;;;;;;;;;;;;;;;5132762;28;20219;-54
2023/10/11 01:05:48;;;;;;;;;;;;;;;;;;5132159;28;20304;-54
2023/10/11 01:08:14;;;;;;;;;;;;;;;;;;5131741;28;19923;-53
2023/10/11 01:10:45;;;;;;;;;;;;;;;;;;5132244;28;20018;-53
2023/10/11 01:13:10;;;;;;;;;;;;;;;;;;5131865;28;20399;-53
2023/10/11 01:15:36;;;;;;;;;;;;;;;;;;5132079;28;20019;-53
2023/10/11 01:18:02;;;;;;;;;;;;;;;;;;5132363;28;20340;-53
2023/10/11 01:20:31;;;;;;;;;;;;;;;;;;5132664;28;19927;-53
2023/10/11 01:22:57;;;;;;;;;;;;;;;;;;5131682;28;19944;-53
2023/10/11 01:25:22;;;;;;;;;;;;;;;;;;5132001;28;20049;-53
2023/10/11 01:27:47;;;;;;;;;;;;;;;;;;5130571;27;19955;-53
2023/10/11 01:30:13;;;;;;;;;;;;;;;;;;5131591;28;20053;-53
2023/10/11 01:32:41;;;;;;;;;;;;;;;;;;5131852;28;19934;-54
2023/10/11 01:35:06;;;;;;;;;;;;;;;;;;5130954;28;19934;-53
2023/10/11 01:37:41;;;;;;;;;;;;;;;;;;5130564;28;19923;-53
2023/10/11 01:40:08;;;;;;;;;;;;;;;;;;5131341;28;20313;-53
2023/10/11 01:42:33;;;;;;;;;;;;;;;;;;5131053;28;19927;-54
2023/10/11 01:45:00;;;;;;;;;;;;;;;;;;5129866;28;20038;-54
2023/10/11 01:47:26;;;;;;;;;;;;;;;;;;5139664;27;19927;-53
2023/10/11 01:49:52;;;;;;;;;;;;;;;;;;5131120;27;19923;-53
2023/10/11 01:52:18;;;;;;;;;;;;;;;;;;5128750;28;19947;-53
2023/10/11 01:54:43;;;;;;;;;;;;;;;;;;5110867;28;20299;-54
2023/10/11 01:57:10;;;;;;;;;;;;;;;;;;5110716;28;19984;-53
2023/10/11 01:59:35;;;;;;;;;;;;;;;;;;5128398;28;19939;-54
2023/10/11 02:02:03;;;;;;;;;;;;;;;;;;5131593;28;19927;-53
2023/10/11 02:04:30;;;;;;;;;;;;;;;;;;5130524;28;20364;-53
2023/10/11 02:06:57;;;;;;;;;;;;;;;;;;5131470;28;19923;-54
2023/10/11 02:09:23;;;;;;;;;;;;;;;;;;5130474;28;19977;-54
2023/10/11 02:11:52;;;;;;;;;;;;;;;;;;5131730;28;20255;-54
2023/10/11 02:14:18;;;;;;;;;;;;;;;;;;5131474;28;19984;-54
2023/10/11 02:16:44;;;;;;;;;;;;;;;;;;5131694;28;19960;-54
2023/10/11 02:19:09;;;;;;;;;;;;;;;;;;5131271;28;19967;-54
2023/10/11 02:21:36;;;;;;;;;;;;;;;;;;5131906;28;19927;-53
2023/10/11 02:24:04;;;;;;;;;;;;;;;;;;5130889;28;19959;-52
2023/10/11 02:26:32;;;;;;;;;;;;;;;;;;5131515;28;19927;-54
2023/10/11 02:29:00;;;;;;;;;;;;;;;;;;5130682;28;19923;-53
2023/10/11 02:31:26;;;;;;;;;;;;;;;;;;5131141;28;19928;-53
2023/10/11 02:33:52;;;;;;;;;;;;;;;;;;5131682;28;19924;-54
2023/10/11 02:36:18;;;;;;;;;;;;;;;;;;5131035;28;19931;-53
2023/10/11 02:38:47;;;;;;;;;;;;;;;;;;5130810;27;19973;-54
2023/10/11 02:41:13;;;;;;;;;;;;;;;;;;5134944;28;19946;-54
2023/10/11 02:43:49;;;;;;;;;;;;;;;;;;5134222;28;20458;-53
2023/10/11 02:46:14;;;;;;;;;;;;;;;;;;5125613;28;19934;-54
2023/10/11 02:48:46;;;;;;;;;;;;;;;;;;5132704;27;19927;-53
2023/10/11 02:51:15;;;;;;;;;;;;;;;;;;5133570;28;19930;-53
2023/10/11 02:53:43;;;;;;;;;;;;;;;;;;5133861;28;19928;-53
2023/10/11 02:56:09;;;;;;;;;;;;;;;;;;5134059;28;20484;-53
2023/10/11 02:58:38;;;;;;;;;;;;;;;;;;5133809;28;19928;-53
2023/10/11 03:01:10;;;;;;;;;;;;;;;;;;5133849;28;19972;-53
2023/10/11 03:03:47;;;;;;;;;;;;;;;;;;5132938;28;19935;-54
2023/10/11 03:06:13;;;;;;;;;;;;;;;;;;5133162;28;20018;-53
2023/10/11 03:08:40;;;;;;;;;;;;;;;;;;5132541;28;20317;-53
2023/10/11 03:11:08;;;;;;;;;;;;;;;;;;5133482;28;19935;-53
2023/10/11 03:13:41;;;;;;;;;;;;;;;;;;5132716;28;19959;-54
2023/10/11 03:16:11;;;;;;;;;;;;;;;;;;5133657;28;19990;-54
2023/10/11 03:18:39;;;;;;;;;;;;;;;;;;5133241;28;19976;-54
2023/10/11 03:21:08;;;;;;;;;;;;;;;;;;5133315;28;20408;-54
2023/10/11 03:23:37;;;;;;;;;;;;;;;;;;5133206;28;19978;-54
2023/10/11 03:26:04;;;;;;;;;;;;;;;;;;5132994;28;20341;-53
2023/10/11 03:28:29;;;;;;;;;;;;;;;;;;5132588;28;19974;-53
2023/10/11 03:30:55;;;;;;;;;;;;;;;;;;5132827;28;19927;-53
2023/10/11 03:33:21;;;;;;;;;;;;;;;;;;5133213;28;19949;-54
2023/10/11 03:35:48;;;;;;;;;;;;;;;;;;5133453;28;20022;-54
2023/10/11 03:38:17;;;;;;;;;;;;;;;;;;5132610;28;19950;-53
2023/10/11 03:43:32;;;;;;;;;;;;;;;;;;5132224;28;20371;-53
2023/10/11 03:46:00;;;;;;;;;;;;;;;;;;5137911;27;19966;-53
2023/10/11 03:48:34;;;;;;;;;;;;;;;;;;5137842;27;19975;-54
2023/10/11 03:50:59;;;;;;;;;;;;;;;;;;5132153;27;20022;-53
2023/10/11 03:53:25;;;;;;;;;;;;;;;;;;5113501;28;19923;-53
2023/10/11 03:55:50;;;;;;;;;;;;;;;;;;5113105;28;19976;-53
2023/10/11 03:58:32;;;;;;;;;;;;;;;;;;5119833;28;19923;-53
2023/10/11 04:01:05;;;;;;;;;;;;;;;;;;5133691;28;19923;-53
2023/10/11 04:03:32;;;;;;;;;;;;;;;;;;5133882;28;20062;-53
2023/10/11 04:05:59;;;;;;;;;;;;;;;;;;5133434;28;19923;-54
2023/10/11 04:08:25;;;;;;;;;;;;;;;;;;5133038;28;19934;-53
2023/10/11 04:10:51;;;;;;;;;;;;;;;;;;5132998;28;20279;-53
2023/10/11 04:13:18;;;;;;;;;;;;;;;;;;5133175;28;20263;-54
2023/10/11 04:15:49;;;;;;;;;;;;;;;;;;5133388;28;19959;-53
2023/10/11 04:18:20;;;;;;;;;;;;;;;;;;5133205;28;19931;-53
2023/10/11 04:21:12;;;;;;;;;;;;;;;;;;5133203;28;19934;-53
2023/10/11 04:23:35;;;;;;;;;;;;;;;;;;5117234;28;19928;-53
2023/10/11 04:26:07;;;;;;;;;;;;;;;;;;5132367;28;19983;-53
2023/10/11 04:28:32;;;;;;;;;;;;;;;;;;5131888;28;20279;-53
2023/10/11 04:31:28;;;;;;;;;;;;;;;;;;5132103;28;20010;-54
2023/10/11 04:33:50;;;;;;;;;;;;;;;;;;5117224;28;19927;-53
2023/10/11 04:36:20;;;;;;;;;;;;;;;;;;5132835;28;19949;-53
2023/10/11 04:38:47;;;;;;;;;;;;;;;;;;5131532;28;19927;-53
2023/10/11 04:41:15;;;;;;;;;;;;;;;;;;5132271;28;19930;-53
2023/10/11 04:43:50;;;;;;;;;;;;;;;;;;5131968;27;20005;-53
2023/10/11 04:46:16;;;;;;;;;;;;;;;;;;5131376;27;19923;-54
2023/10/11 04:48:42;;;;;;;;;;;;;;;;;;5141787;27;20269;-54
2023/10/11 04:51:21;;;;;;;;;;;;;;;;;;5131443;28;19965;-53
2023/10/11 04:53:54;;;;;;;;;;;;;;;;;;5132215;28;19938;-53
2023/10/11 04:59:06;;;;;;;;;;;;;;;;;;5110322;28;20104;-53
2023/10/11 05:01:40;;;;;;;;;;;;;;;;;;5110777;28;20391;-54
2023/10/11 05:04:12;;;;;;;;;;;;;;;;;;5111121;28;19928;-54
2023/10/11 05:06:41;;;;;;;;;;;;;;;;;;5111134;28;20427;-54
2023/10/11 05:09:13;;;;;;;;;;;;;;;;;;5124436;28;20020;-54
2023/10/11 05:11:43;;;;;;;;;;;;;;;;;;5131732;28;20019;-53
2023/10/11 05:14:26;;;;;;;;;;;;;;;;;;5131209;28;19924;-53
2023/10/11 05:16:58;;;;;;;;;;;;;;;;;;5131932;28;19927;-54
2023/10/11 05:19:23;;;;;;;;;;;;;;;;;;5131606;28;19970;-53
2023/10/11 05:21:53;;;;;;;;;;;;;;;;;;5131963;28;20017;-52
2023/10/11 05:32:32;;;;;;;;;;;;;;;;;;5095782;28;19997;-53
2023/10/11 05:51:30;;;;;;;;;;;;;;;;;;5109109;28;19967;-54
2023/10/11 05:53:56;;;;;;;;;;;;;;;;;;5130876;27;19927;-54
2023/10/11 05:56:21;;;;;;;;;;;;;;;;;;5131701;27;19975;-54
2023/10/11 05:58:48;;;;;;;;;;;;;;;;;;5131146;27;19927;-54
2023/10/11 06:01:13;;;;;;;;;;;;;;;;;;5131979;28;19959;-53
2023/10/11 06:03:39;;;;;;;;;;;;;;;;;;5131830;28;20112;-53
2023/10/11 06:06:10;;;;;;;;;;;;;;;;;;5131624;28;20022;-54
2023/10/11 06:08:38;;;;;;;;;;;;;;;;;;5131322;28;19934;-54
2023/10/11 06:11:08;;;;;;;;;;;;;;;;;;5131726;28;19927;-54
2023/10/11 06:13:33;;;;;;;;;;;;;;;;;;5132402;27;19928;-54
2023/10/11 06:15:59;;;;;;;;;;;;;;;;;;5135445;28;19929;-54
2023/10/11 06:18:39;;;;;;;;;;;;;;;;;;5134704;28;19969;-54
2023/10/11 06:21:05;;;;;;;;;;;;;;;;;;5135401;28;19931;-54
2023/10/11 06:23:31;;;;;;;;;;;;;;;;;;5135094;28;19923;-54
2023/10/11 06:25:59;;;;;;;;;;;;;;;;;;5135198;28;20166;-54
2023/10/11 06:28:30;;;;;;;;;;;;;;;;;;5134631;28;19923;-53
2023/10/11 06:30:56;;;;;;;;;;;;;;;;;;5134863;28;19939;-53
2023/10/11 06:33:22;;;;;;;;;;;;;;;;;;5134777;28;20014;-53
2023/10/11 06:35:49;;;;;;;;;;;;;;;;;;5134672;28;19959;-53
2023/10/11 06:38:14;;;;;;;;;;;;;;;;;;5134165;28;19931;-53
2023/10/11 06:40:46;;;;;;;;;;;;;;;;;;5134210;28;19980;-54
2023/10/11 06:43:12;;;;;;;;;;;;;;;;;;5133662;28;19931;-53
2023/10/11 06:45:40;;;;;;;;;;;;;;;;;;5134882;27;20017;-54
2023/10/11 06:48:06;;;;;;;;;;;;;;;;;;5150072;27;19923;-53
2023/10/11 06:50:35;;;;;;;;;;;;;;;;;;5133830;28;20356;-54
2023/10/11 06:53:03;;;;;;;;;;;;;;;;;;5126242;28;19923;-53
2023/10/11 06:55:29;;;;;;;;;;;;;;;;;;5132673;28;20020;-53
2023/10/11 06:57:55;;;;;;;;;;;;;;;;;;5134099;27;20491;-53
2023/10/11 07:00:21;;;;;;;;;;;;;;;;;;5134248;28;20303;-54
2023/10/11 07:02:47;;;;;;;;;;;;;;;;;;5134554;28;19962;-54
2023/10/11 07:05:17;;;;;;;;;;;;;;;;;;5134369;28;20022;-54
2023/10/11 07:07:47;;;;;;;;;;;;;;;;;;5134097;28;19923;-53
2023/10/11 07:13:05;;;;;;;;;;;;;;;;;;5118095;28;20395;-53
2023/10/11 07:15:31;;;;;;;;;;;;;;;;;;5133982;28;19923;-53
2023/10/11 07:17:56;;;;;;;;;;;;;;;;;;5132920;28;19930;-53
2023/10/11 07:23:09;;;;;;;;;;;;;;;;;;5118843;28;19931;-53
2023/10/11 07:25:38;;;;;;;;;;;;;;;;;;5133862;27;19931;-53
2023/10/11 07:28:03;;;;;;;;;;;;;;;;;;5133810;28;19924;-53
2023/10/11 07:30:37;;;;;;;;;;;;;;;;;;5133815;28;20311;-54
2023/10/11 07:33:04;;;;;;;;;;;;;;;;;;5134284;28;19949;-54
2023/10/11 07:35:29;;;;;;;;;;;;;;;;;;5133817;28;19930;-54
2023/10/11 07:37:56;;;;;;;;;;;;;;;;;;5133954;28;19923;-54
2023/10/11 07:40:33;;;;;;;;;;;;;;;;;;5134078;28;20033;-53
2023/10/11 07:42:58;;;;;;;;;;;;;;;;;;5129415;27;19938;-53
2023/10/11 07:45:26;;;;;;;;;;;;;;;;;;5123613;27;19923;-54
2023/10/11 07:47:52;;;;;;;;;;;;;;;;;;5133827;27;19923;-53
2023/10/11 07:50:25;;;;;;;;;;;;;;;;;;5133728;28;19927;-53
2023/10/11 07:52:50;;;;;;;;;;;;;;;;;;5133653;28;19930;-54
2023/10/11 07:55:17;;;;;;;;;;;;;;;;;;5132732;28;19923;-53
2023/10/11 07:57:45;;;;;;;;;;;;;;;;;;5124419;27;19927;-54
2023/10/11 08:00:16;;;;;;;;;;;;;;;;;;5133246;28;19976;-54
2023/10/11 08:02:42;;;;;;;;;;;;;;;;;;5133481;28;19924;-53
2023/10/11 08:05:14;;;;;;;;;;;;;;;;;;5133343;28;19935;-53
2023/10/11 08:07:40;;;;;;;;;;;;;;;;;;5132668;28;19946;-53
2023/10/11 08:10:44;;;;;;;;;;;;;;;;;;5132923;28;19969;-53
2023/10/11 08:12:51;;;;;;;;;;;;;;;;;;5117353;28;19966;-53
2023/10/11 08:15:21;;;;;;;;;;;;;;;;;;5132485;28;19927;-53
2023/10/11 08:17:47;;;;;;;;;;;;;;;;;;5132723;28;19927;-53
2023/10/11 08:20:15;;;;;;;;;;;;;;;;;;5133371;28;20324;-53
2023/10/11 08:22:41;;;;;;;;;;;;;;;;;;5133096;28;19963;-53
2023/10/11 08:25:12;;;;;;;;;;;;;;;;;;5133129;28;19927;-54
2023/10/11 08:27:37;;;;;;;;;;;;;;;;;;5133124;28;19959;-53
2023/10/11 08:30:22;;;;;;;;;;;;;;;;;;5132995;28;20365;-53
2023/10/11 08:32:48;;;;;;;;;;;;;;;;;;5133337;28;19935;-53
2023/10/11 08:35:23;;;;;;;;;;;;;;;;;;5133065;28;19924;-54
2023/10/11 08:37:52;;;;;;;;;;;;;;;;;;5131501;27;19938;-53
2023/10/11 08:40:22;;;;;;;;;;;;;;;;;;5133098;28;19927;-54
2023/10/11 08:42:48;;;;;;;;;;;;;;;;;;5132024;28;19934;-54
2023/10/11 08:45:14;;;;;;;;;;;;;;;;;;5147309;27;19962;-53
2023/10/11 08:47:40;;;;;;;;;;;;;;;;;;5135888;27;19923;-53
2023/10/11 08:50:08;;;;;;;;;;;;;;;;;;5132267;28;19928;-53
2023/10/11 08:52:34;;;;;;;;;;;;;;;;;;5132885;28;20017;-53
2023/10/11 08:55:00;;;;;;;;;;;;;;;;;;5132342;28;19927;-54
2023/10/11 08:57:26;;;;;;;;;;;;;;;;;;5132139;28;19959;-53
2023/10/11 08:59:51;;;;;;;;;;;;;;;;;;5132545;28;19931;-53
2023/10/11 09:02:17;;;;;;;;;;;;;;;;;;5133220;28;19980;-53
2023/10/11 09:04:43;;;;;;;;;;;;;;;;;;5132876;28;20311;-54
2023/10/11 09:07:13;;;;;;;;;;;;;;;;;;5132690;28;20391;-54
2023/10/11 09:09:40;;;;;;;;;;;;;;;;;;5131459;28;19971;-53
2023/10/11 09:12:23;;;;;;;;;;;;;;;;;;5132573;28;19923;-54
2023/10/11 09:14:48;;;;;;;;;;;;;;;;;;5131624;28;19930;-54
2023/10/11 09:17:18;;;;;;;;;;;;;;;;;;5132701;28;19950;-53
2023/10/11 09:19:44;;;;;;;;;;;;;;;;;;5132148;28;19946;-53
2023/10/11 09:22:18;;;;;;;;;;;;;;;;;;5132545;28;20382;-53
2023/10/11 09:24:44;;;;;;;;;;;;;;;;;;5132682;28;19924;-53
2023/10/11 09:27:18;;;;;;;;;;;;;;;;;;5131498;28;19931;-53
2023/10/11 09:29:44;;;;;;;;;;;;;;;;;;5131073;28;19927;-53
2023/10/11 09:32:09;;;;;;;;;;;;;;;;;;5131394;28;19983;-53
2023/10/11 09:34:35;;;;;;;;;;;;;;;;;;5131706;28;20053;-54
2023/10/11 09:37:00;;;;;;;;;;;;;;;;;;5131331;28;20014;-54
2023/10/11 09:39:29;;;;;;;;;;;;;;;;;;5131816;28;20413;-54
2023/10/11 09:41:57;;;;;;;;;;;;;;;;;;5131260;27;19927;-54
2023/10/11 09:44:23;;;;;;;;;;;;;;;;;;5131447;27;19930;-53
2023/10/11 09:46:48;;;;;;;;;;;;;;;;;;5132917;27;20307;-54
2023/10/11 09:49:15;;;;;;;;;;;;;;;;;;5130782;27;19951;-54
2023/10/11 09:51:41;;;;;;;;;;;;;;;;;;5131885;27;19931;-53
2023/10/11 09:54:07;;;;;;;;;;;;;;;;;;5131538;27;20318;-53
2023/10/11 09:56:33;;;;;;;;;;;;;;;;;;5131901;27;19923;-53
2023/10/11 09:58:59;;;;;;;;;;;;;;;;;;5120925;28;22318;-53
2023/10/11 10:01:26;;;;;;;;;;;;;;;;;;5110602;28;20019;-54
2023/10/11 10:03:52;;;;;;;;;;;;;;;;;;5111272;28;19984;-53
2023/10/11 10:06:19;;;;;;;;;;;;;;;;;;5111710;28;20064;-54
2023/10/11 10:08:47;;;;;;;;;;;;;;;;;;5110702;28;20185;-54
2023/10/11 10:11:13;;;;;;;;;;;;;;;;;;5110521;28;19962;-54
2023/10/11 10:13:38;;;;;;;;;;;;;;;;;;5110591;28;20030;-53
2023/10/11 10:16:04;;;;;;;;;;;;;;;;;;5110329;28;19924;-53
2023/10/11 10:18:35;;;;;;;;;;;;;;;;;;5110635;28;20015;-53
2023/10/11 10:21:02;;;;;;;;;;;;;;;;;;5110586;28;19934;-53
2023/10/11 10:23:29;;;;;;;;;;;;;;;;;;5110769;28;19924;-53
2023/10/11 10:25:55;;;;;;;;;;;;;;;;;;5110491;28;20440;-53
2023/10/11 10:28:23;;;;;;;;;;;;;;;;;;5110793;28;19924;-53
2023/10/11 10:30:49;;;;;;;;;;;;;;;;;;5109684;28;20023;-53
2023/10/11 10:33:18;;;;;;;;;;;;;;;;;;5110196;28;19999;-54
2023/10/11 10:35:43;;;;;;;;;;;;;;;;;;5110237;28;19979;-53
2023/10/11 10:38:09;;;;;;;;;;;;;;;;;;5109732;28;19975;-53
2023/10/11 10:40:37;;;;;;;;;;;;;;;;;;5110786;28;19924;-54
2023/10/11 10:43:02;;;;;;;;;;;;;;;;;;5116896;28;20419;-53
2023/10/11 10:45:28;;;;;;;;;;;;;;;;;;5130737;28;20010;-53
2023/10/11 10:47:53;;;;;;;;;;;;;;;;;;5127379;28;20346;-53
2023/10/11 10:50:21;;;;;;;;;;;;;;;;;;5109752;28;19924;-53
2023/10/11 10:52:49;;;;;;;;;;;;;;;;;;5109444;28;20332;-53
2023/10/11 10:55:15;;;;;;;;;;;;;;;;;;5109649;28;19924;-53
2023/10/11 10:57:41;;;;;;;;;;;;;;;;;;5109390;28;19975;-54
2023/10/11 11:00:22;;;;;;;;;;;;;;;;;;5109631;28;19975;-53
2023/10/11 11:02:48;;;;;;;;;;;;;;;;;;5112905;28;19938;-53
2023/10/11 11:05:14;;;;;;;;;;;;;;;;;;5113449;28;19985;-54
2023/10/11 11:07:39;;;;;;;;;;;;;;;;;;5112979;28;20003;-54
2023/10/11 11:10:06;;;;;;;;;;;;;;;;;;5113365;28;20003;-53
2023/10/11 11:12:31;;;;;;;;;;;;;;;;;;5112204;28;19955;-54
2023/10/11 11:14:58;;;;;;;;;;;;;;;;;;5113006;28;20014;-53
2023/10/11 11:17:23;;;;;;;;;;;;;;;;;;5113534;28;19976;-53
2023/10/11 11:19:49;;;;;;;;;;;;;;;;;;5113004;28;19928;-53
2023/10/11 11:22:15;;;;;;;;;;;;;;;;;;5112654;28;20566;-53
2023/10/11 11:24:41;;;;;;;;;;;;;;;;;;5113028;28;19927;-53
2023/10/11 11:27:07;;;;;;;;;;;;;;;;;;5113203;28;19950;-53
2023/10/11 11:29:34;;;;;;;;;;;;;;;;;;5112834;28;19974;-54
2023/10/11 11:31:59;;;;;;;;;;;;;;;;;;5112699;28;19923;-53
2023/10/11 11:34:33;;;;;;;;;;;;;;;;;;5113144;28;20065;-54
2023/10/11 11:37:00;;;;;;;;;;;;;;;;;;5112948;28;19924;-53
2023/10/11 11:39:40;;;;;;;;;;;;;;;;;;5112986;28;19924;-53
2023/10/11 11:42:18;;;;;;;;;;;;;;;;;;5109982;28;19973;-53
2023/10/11 11:44:44;;;;;;;;;;;;;;;;;;5113156;28;19924;-54
2023/10/11 11:47:09;;;;;;;;;;;;;;;;;;5112831;28;19924;-53
2023/10/11 11:49:36;;;;;;;;;;;;;;;;;;5112510;28;20015;-53
2023/10/11 11:52:01;;;;;;;;;;;;;;;;;;5112661;28;19972;-53
2023/10/11 11:54:28;;;;;;;;;;;;;;;;;;5112767;28;19977;-53
2023/10/11 11:56:54;;;;;;;;;;;;;;;;;;5112556;28;19928;-54
2023/10/11 11:59:20;;;;;;;;;;;;;;;;;;5112630;28;19966;-53
2023/10/11 12:01:49;;;;;;;;;;;;;;;;;;5112852;28;19924;-53
2023/10/11 12:04:14;;;;;;;;;;;;;;;;;;5112861;28;19924;-53
2023/10/11 12:06:40;;;;;;;;;;;;;;;;;;5112533;28;20018;-54
2023/10/11 12:09:05;;;;;;;;;;;;;;;;;;5112301;28;19923;-54
2023/10/11 12:11:31;;;;;;;;;;;;;;;;;;5112046;28;19927;-53
2023/10/11 12:13:56;;;;;;;;;;;;;;;;;;5111398;28;19928;-53
2023/10/11 12:16:22;;;;;;;;;;;;;;;;;;5111882;28;20027;-53
2023/10/11 12:18:48;;;;;;;;;;;;;;;;;;5112627;28;19931;-53
2023/10/11 12:21:15;;;;;;;;;;;;;;;;;;5113010;28;20010;-53
2023/10/11 12:23:48;;;;;;;;;;;;;;;;;;5112462;28;19932;-53
2023/10/11 12:26:16;;;;;;;;;;;;;;;;;;5112358;28;20105;-53
2023/10/11 12:28:42;;;;;;;;;;;;;;;;;;5112603;28;19928;-53
2023/10/11 12:31:07;;;;;;;;;;;;;;;;;;5112556;28;19974;-54
2023/10/11 12:33:33;;;;;;;;;;;;;;;;;;5112699;28;20006;-53
2023/10/11 12:35:59;;;;;;;;;;;;;;;;;;5112523;28;19950;-54
2023/10/11 12:38:25;;;;;;;;;;;;;;;;;;5111757;28;19928;-54
2023/10/11 12:40:50;;;;;;;;;;;;;;;;;;5108948;28;20428;-53
2023/10/11 12:43:22;;;;;;;;;;;;;;;;;;5114622;28;20459;-53
2023/10/11 12:45:48;;;;;;;;;;;;;;;;;;5112021;28;20212;-53
2023/10/11 12:48:15;;;;;;;;;;;;;;;;;;5112268;28;20532;-53
2023/10/11 12:50:40;;;;;;;;;;;;;;;;;;5112251;28;19934;-54
2023/10/11 12:53:10;;;;;;;;;;;;;;;;;;5112190;28;20003;-53
2023/10/11 12:55:35;;;;;;;;;;;;;;;;;;5112026;28;20267;-53
2023/10/11 12:58:01;;;;;;;;;;;;;;;;;;5111460;28;20368;-54
2023/10/11 13:00:31;;;;;;;;;;;;;;;;;;5112105;28;20031;-53
2023/10/11 13:03:13;;;;;;;;;;;;;;;;;;5112088;28;20371;-53
2023/10/11 13:05:39;;;;;;;;;;;;;;;;;;5111303;28;20364;-53
2023/10/11 13:08:04;;;;;;;;;;;;;;;;;;5111045;28;20026;-53
2023/10/11 13:10:30;;;;;;;;;;;;;;;;;;5111232;28;19930;-53
2023/10/11 13:12:55;;;;;;;;;;;;;;;;;;5110711;28;19923;-53
2023/10/11 13:15:20;;;;;;;;;;;;;;;;;;5110975;28;20010;-53
2023/10/11 13:17:47;;;;;;;;;;;;;;;;;;5110900;28;19938;-53
2023/10/11 13:20:20;;;;;;;;;;;;;;;;;;5111579;28;20338;-53
2023/10/11 13:22:46;;;;;;;;;;;;;;;;;;5111076;28;19957;-53
2023/10/11 13:25:22;;;;;;;;;;;;;;;;;;5111602;28;19934;-53
2023/10/11 13:27:58;;;;;;;;;;;;;;;;;;5111016;28;19934;-53
2023/10/11 13:30:24;;;;;;;;;;;;;;;;;;5111337;28;19923;-53
2023/10/11 13:32:50;;;;;;;;;;;;;;;;;;5110848;28;19932;-53
2023/10/11 13:35:15;;;;;;;;;;;;;;;;;;5111510;28;20481;-53
2023/10/11 13:37:46;;;;;;;;;;;;;;;;;;5110525;28;20022;-53
2023/10/11 13:40:11;;;;;;;;;;;;;;;;;;5110743;28;19963;-53
2023/10/11 13:42:37;;;;;;;;;;;;;;;;;;5091720;28;20427;-53
2023/10/11 13:45:03;;;;;;;;;;;;;;;;;;5090646;28;20372;-53
2023/10/11 13:47:33;;;;;;;;;;;;;;;;;;5091027;28;19924;-53
2023/10/11 13:49:59;;;;;;;;;;;;;;;;;;5090883;28;19924;-53
2023/10/11 13:52:24;;;;;;;;;;;;;;;;;;5090366;28;19971;-53
2023/10/11 13:54:52;;;;;;;;;;;;;;;;;;5091039;28;19924;-53
2023/10/11 13:57:18;;;;;;;;;;;;;;;;;;5090544;28;19924;-53
2023/10/11 13:59:45;;;;;;;;;;;;;;;;;;5108956;28;20326;-53
2023/10/11 14:02:45;;;;;;;;;;;;;;;;;;5111266;28;20380;-53
2023/10/11 14:04:59;;;;;;;;;;;;;;;;;;5095838;28;20010;-53
2023/10/11 14:07:50;;;;;;;;;;;;;;;;;;5111094;28;19981;-53
2023/10/11 14:10:21;;;;;;;;;;;;;;;;;;5095311;28;19931;-53
2023/10/11 14:12:46;;;;;;;;;;;;;;;;;;5110343;28;19928;-53
2023/10/11 14:15:17;;;;;;;;;;;;;;;;;;5110471;28;19924;-53
2023/10/11 14:17:44;;;;;;;;;;;;;;;;;;5109601;28;19935;-53
2023/10/11 14:20:18;;;;;;;;;;;;;;;;;;5110856;28;19998;-53
2023/10/11 14:22:44;;;;;;;;;;;;;;;;;;5110630;28;20380;-53
2023/10/11 14:25:11;;;;;;;;;;;;;;;;;;5110737;28;19923;-53
2023/10/11 14:27:39;;;;;;;;;;;;;;;;;;5109757;28;19967;-53
2023/10/11 14:30:05;;;;;;;;;;;;;;;;;;5109799;28;19934;-53
2023/10/11 14:32:30;;;;;;;;;;;;;;;;;;5109736;28;19974;-53
2023/10/11 14:34:56;;;;;;;;;;;;;;;;;;5111521;28;20372;-53
2023/10/11 14:37:21;;;;;;;;;;;;;;;;;;5113245;28;19928;-53
2023/10/11 14:39:48;;;;;;;;;;;;;;;;;;5112593;28;19928;-53
2023/10/11 14:42:14;;;;;;;;;;;;;;;;;;5129459;28;20379;-53
2023/10/11 14:44:39;;;;;;;;;;;;;;;;;;5133816;28;19963;-53
2023/10/11 14:47:05;;;;;;;;;;;;;;;;;;5134027;28;20403;-53
2023/10/11 14:49:30;;;;;;;;;;;;;;;;;;5116506;28;20368;-53
2023/10/11 14:51:56;;;;;;;;;;;;;;;;;;5113378;28;19931;-53
2023/10/11 14:54:21;;;;;;;;;;;;;;;;;;5113671;28;19963;-53
2023/10/11 14:56:47;;;;;;;;;;;;;;;;;;5113425;28;20006;-53
2023/10/11 14:59:12;;;;;;;;;;;;;;;;;;5113565;28;19975;-53
2023/10/11 15:01:39;;;;;;;;;;;;;;;;;;5113540;28;19928;-53
2023/10/11 15:04:12;;;;;;;;;;;;;;;;;;5113077;28;20165;-53
2023/10/11 15:06:37;;;;;;;;;;;;;;;;;;5113600;28;19924;-53
2023/10/11 15:09:08;;;;;;;;;;;;;;;;;;5113312;28;20023;-53
2023/10/11 15:11:34;;;;;;;;;;;;;;;;;;5113120;28;19927;-53
2023/10/11 15:14:03;;;;;;;;;;;;;;;;;;5112679;28;19983;-53
2023/10/11 15:16:29;;;;;;;;;;;;;;;;;;5113009;28;20024;-53
2023/10/11 15:18:54;;;;;;;;;;;;;;;;;;5112427;28;20372;-53
2023/10/11 15:21:20;;;;;;;;;;;;;;;;;;5113084;28;20069;-53
2023/10/11 15:23:45;;;;;;;;;;;;;;;;;;5113305;28;19967;-53
2023/10/11 15:26:11;;;;;;;;;;;;;;;;;;5113428;28;19927;-53
2023/10/11 15:28:40;;;;;;;;;;;;;;;;;;5112478;28;19927;-53
2023/10/11 15:31:06;;;;;;;;;;;;;;;;;;5111752;28;20393;-53
2023/10/11 15:33:31;;;;;;;;;;;;;;;;;;5112682;28;19969;-53
2023/10/11 15:35:57;;;;;;;;;;;;;;;;;;5113143;28;20368;-53
2023/10/11 15:38:24;;;;;;;;;;;;;;;;;;5112457;28;19927;-53
2023/10/11 15:40:49;;;;;;;;;;;;;;;;;;5121194;28;20372;-53
2023/10/11 15:43:17;;;;;;;;;;;;;;;;;;5112599;28;20022;-53
2023/10/11 15:45:42;;;;;;;;;;;;;;;;;;5111907;28;19935;-53
2023/10/11 15:48:08;;;;;;;;;;;;;;;;;;5112431;28;20010;-53
2023/10/11 15:50:35;;;;;;;;;;;;;;;;;;5112888;28;20014;-53
2023/10/11 15:53:01;;;;;;;;;;;;;;;;;;5112450;28;19933;-53
2023/10/11 15:55:26;;;;;;;;;;;;;;;;;;5113280;28;20019;-53
2023/10/11 15:57:55;;;;;;;;;;;;;;;;;;5112298;28;19924;-53
2023/10/11 16:00:20;;;;;;;;;;;;;;;;;;5112953;28;19924;-53
2023/10/11 16:02:47;;;;;;;;;;;;;;;;;;5113480;28;20114;-53
2023/10/11 16:05:12;;;;;;;;;;;;;;;;;;5113336;28;19963;-53
2023/10/11 16:07:38;;;;;;;;;;;;;;;;;;5112717;28;19927;-53
2023/10/11 16:10:04;;;;;;;;;;;;;;;;;;5113233;28;20400;-52
2023/10/11 16:12:30;;;;;;;;;;;;;;;;;;5112418;28;19924;-53
2023/10/11 16:14:55;;;;;;;;;;;;;;;;;;5112956;28;19951;-53
2023/10/11 16:17:21;;;;;;;;;;;;;;;;;;5113084;28;19928;-53
2023/10/11 16:19:47;;;;;;;;;;;;;;;;;;5112454;28;19966;-53
2023/10/11 16:22:12;;;;;;;;;;;;;;;;;;5112754;28;19959;-53
2023/10/11 16:24:38;;;;;;;;;;;;;;;;;;5112934;28;19942;-53
2023/10/11 16:27:03;;;;;;;;;;;;;;;;;;5112459;28;19924;-53
2023/10/11 16:29:29;;;;;;;;;;;;;;;;;;5112626;28;19924;-53
2023/10/11 16:31:54;;;;;;;;;;;;;;;;;;5111440;28;20295;-53
2023/10/11 16:34:21;;;;;;;;;;;;;;;;;;5112390;28;19950;-53
2023/10/11 16:36:46;;;;;;;;;;;;;;;;;;5112618;28;19935;-53
2023/10/11 16:39:16;;;;;;;;;;;;;;;;;;5110998;28;19924;-53
2023/10/11 16:41:58;;;;;;;;;;;;;;;;;;5125287;28;19959;-53
2023/10/11 16:44:23;;;;;;;;;;;;;;;;;;5124207;28;20031;-53
2023/10/11 16:46:49;;;;;;;;;;;;;;;;;;5092394;28;19924;-53
2023/10/11 16:49:16;;;;;;;;;;;;;;;;;;5106000;28;20415;-53
2023/10/11 16:51:43;;;;;;;;;;;;;;;;;;5111787;28;19928;-53
2023/10/11 16:54:08;;;;;;;;;;;;;;;;;;5111698;28;19927;-53
2023/10/11 16:56:34;;;;;;;;;;;;;;;;;;5111968;28;19967;-53
2023/10/11 16:58:59;;;;;;;;;;;;;;;;;;5110079;28;19930;-53
2023/10/11 17:01:25;;;;;;;;;;;;;;;;;;5111779;28;19987;-53
2023/10/11 17:03:52;;;;;;;;;;;;;;;;;;5111504;28;19927;-53
2023/10/11 17:06:17;;;;;;;;;;;;;;;;;;5111534;28;20026;-53
2023/10/11 17:08:43;;;;;;;;;;;;;;;;;;5111525;28;19931;-52
2023/10/11 17:11:11;;;;;;;;;;;;;;;;;;5110930;28;19995;-53
2023/10/11 17:13:37;;;;;;;;;;;;;;;;;;5111128;28;20329;-53
2023/10/11 17:16:02;;;;;;;;;;;;;;;;;;5111701;28;19927;-53
2023/10/11 17:18:29;;;;;;;;;;;;;;;;;;5110838;28;19978;-53
2023/10/11 17:20:56;;;;;;;;;;;;;;;;;;5112129;28;20025;-53
2023/10/11 17:23:21;;;;;;;;;;;;;;;;;;5111464;28;20264;-53
2023/10/11 17:25:47;;;;;;;;;;;;;;;;;;5111821;28;20364;-53